Time;durP1;ratioP1;P1;durP2;ratioP2;P2;SDS_P1;SDS_P2;PMS_P1;PMS_P2;Temp;Humidity;BMP_temperature;BMP_pressure;BME280_temperature;BME280_humidity;BME280_pressure;Samples;Min_cycle;Max_cycle;Signal;HPM_P1;HPM_P2
2021/11/03 00:01:19;;;;;;;15.63;8.57;;;7.30;99.90;;;;;;4968928;28;20301;-53
2021/11/03 00:03:49;;;;;;;12.90;9.53;;;7.30;99.90;;;;;;4969214;28;20650;-50
2021/11/03 00:06:17;;;;;;;12.97;9.40;;;7.30;99.90;;;;;;4978521;28;20630;-53
2021/11/03 00:08:44;;;;;;;11.60;9.40;;;7.20;99.90;;;;;;4978114;28;20377;-51
2021/11/03 00:11:12;;;;;;;12.23;9.07;;;7.20;99.90;;;;;;4976915;28;21770;-51
2021/11/03 00:13:39;;;;;;;11.33;9.07;;;7.20;99.90;;;;;;4975170;28;20347;-52
2021/11/03 00:16:06;;;;;;;10.77;8.87;;;7.30;99.90;;;;;;4975571;28;20205;-51
2021/11/03 00:18:34;;;;;;;10.50;7.67;;;7.20;99.90;;;;;;4973593;28;20229;-51
2021/11/03 00:21:03;;;;;;;9.20;7.27;;;7.20;99.90;;;;;;4978223;28;20628;-51
2021/11/03 00:23:30;;;;;;;8.77;7.67;;;7.10;99.90;;;;;;4978994;28;20271;-53
2021/11/03 00:25:56;;;;;;;16.67;8.40;;;7.10;99.90;;;;;;4979113;28;20232;-52
2021/11/03 00:28:24;;;;;;;10.47;8.43;;;7.10;99.90;;;;;;4977511;28;20643;-52
2021/11/03 00:30:54;;;;;;;12.33;7.67;;;7.00;99.90;;;;;;4976441;28;20297;-53
2021/11/03 00:33:23;;;;;;;10.67;8.40;;;6.90;99.90;;;;;;4975295;28;20268;-51
2021/11/03 00:35:50;;;;;;;11.77;8.57;;;6.90;99.90;;;;;;4976871;28;20206;-52
2021/11/03 00:38:17;;;;;;;10.43;8.60;;;6.90;99.90;;;;;;4977735;28;20441;-52
2021/11/03 00:40:44;;;;;;;11.73;8.30;;;6.80;99.90;;;;;;4979316;28;20241;-52
2021/11/03 00:43:10;;;;;;;10.83;8.83;;;6.80;99.90;;;;;;4975952;28;20294;-53
2021/11/03 00:45:37;;;;;;;10.77;8.20;;;6.70;99.90;;;;;;4978250;28;20241;-53
2021/11/03 00:48:04;;;;;;;10.93;8.60;;;6.70;99.90;;;;;;4971876;28;20234;-52
2021/11/03 00:50:32;;;;;;;9.77;8.07;;;6.70;99.90;;;;;;4979356;28;20370;-51
2021/11/03 00:52:59;;;;;;;12.07;9.17;;;6.80;99.90;;;;;;4977995;28;20239;-54
2021/11/03 00:55:26;;;;;;;11.10;8.43;;;6.80;99.90;;;;;;4974899;28;20659;-51
2021/11/03 00:57:52;;;;;;;14.43;8.87;;;6.60;99.90;;;;;;4976802;28;20277;-52
2021/11/03 01:00:20;;;;;;;9.80;8.03;;;6.60;99.90;;;;;;4977916;28;20230;-52
2021/11/03 01:02:48;;;;;;;11.83;8.57;;;6.70;99.90;;;;;;4974668;28;20667;-52
2021/11/03 01:05:23;;;;;;;10.17;8.07;;;6.70;99.90;;;;;;4977517;28;20278;-51
2021/11/03 01:07:50;;;;;;;13.80;7.87;;;6.80;99.90;;;;;;4976562;28;20269;-50
2021/11/03 01:10:20;;;;;;;11.60;8.87;;;6.80;99.90;;;;;;4974298;28;20241;-53
2021/11/03 01:12:47;;;;;;;12.30;9.07;;;6.90;99.90;;;;;;4973676;28;20349;-52
2021/11/03 01:15:17;;;;;;;13.10;9.43;;;7.00;99.90;;;;;;4967677;28;20234;-52
2021/11/03 01:17:49;;;;;;;10.00;8.37;;;6.90;99.90;;;;;;4973567;28;20276;-52
2021/11/03 01:20:16;;;;;;;9.63;6.73;;;6.80;99.90;;;;;;4952505;28;20204;-51
2021/11/03 01:22:44;;;;;;;11.17;8.53;;;6.70;99.90;;;;;;4975497;28;20666;-51
2021/11/03 01:25:12;;;;;;;9.77;8.00;;;6.60;99.90;;;;;;4972066;28;20210;-51
2021/11/03 01:27:39;;;;;;;9.10;7.60;;;6.60;99.90;;;;;;4973516;28;20607;-51
2021/11/03 01:30:09;;;;;;;11.67;8.87;;;6.60;99.90;;;;;;4957898;28;20242;-51
2021/11/03 01:32:35;;;;;;;11.83;8.43;;;6.60;99.90;;;;;;4973661;28;20332;-52
2021/11/03 01:35:05;;;;;;;10.60;8.30;;;6.50;99.90;;;;;;4973866;28;20218;-52
2021/11/03 01:37:32;;;;;;;7.80;6.47;;;6.50;99.90;;;;;;4976496;28;20237;-51
2021/11/03 01:39:58;;;;;;;11.30;7.93;;;6.50;99.90;;;;;;4974020;28;20460;-51
2021/11/03 01:42:26;;;;;;;10.27;7.67;;;6.40;99.90;;;;;;4975038;28;20209;-51
2021/11/03 01:44:52;;;;;;;10.43;7.50;;;6.40;99.90;;;;;;4974489;28;20199;-53
2021/11/03 01:47:40;;;;;;;9.30;7.40;;;6.40;99.90;;;;;;4971493;28;20238;-52
2021/11/03 01:50:17;;;;;;;10.57;7.90;;;6.40;99.90;;;;;;4975738;28;20317;-51
2021/11/03 01:52:47;;;;;;;10.23;8.37;;;6.40;99.90;;;;;;4979885;28;20241;-52
2021/11/03 01:55:16;;;;;;;11.30;8.10;;;6.50;99.90;;;;;;4975823;28;20236;-52
2021/11/03 01:57:53;;;;;;;11.47;8.60;;;6.40;99.90;;;;;;4975390;28;20254;-51
2021/11/03 02:00:26;;;;;;;14.40;8.77;;;6.30;99.90;;;;;;4975085;28;20244;-52
2021/11/03 02:03:02;;;;;;;12.00;9.03;;;6.20;99.90;;;;;;4960590;28;20634;-51
2021/11/03 02:05:29;;;;;;;12.80;9.63;;;6.20;99.90;;;;;;4974967;28;20548;-53
2021/11/03 02:07:57;;;;;;;11.87;9.50;;;6.20;99.90;;;;;;4974480;28;20313;-52
2021/11/03 02:10:24;;;;;;;11.03;8.23;;;6.20;99.90;;;;;;4973491;28;20283;-52
2021/11/03 02:12:51;;;;;;;10.43;8.37;;;6.10;99.90;;;;;;4973014;28;20231;-52
2021/11/03 02:15:18;;;;;;;11.23;8.17;;;6.10;99.90;;;;;;4976646;28;20629;-51
2021/11/03 02:17:50;;;;;;;10.87;7.80;;;6.10;99.90;;;;;;4975235;28;20215;-53
2021/11/03 02:20:21;;;;;;;9.33;7.63;;;6.00;99.90;;;;;;4975420;28;20652;-52
2021/11/03 02:23:12;;;;;;;12.00;8.30;;;6.10;99.90;;;;;;4959179;28;20343;-51
2021/11/03 02:25:46;;;;;;;12.80;9.40;;;6.00;99.90;;;;;;4976428;28;20210;-51
2021/11/03 02:28:15;;;;;;;13.47;9.47;;;6.00;99.90;;;;;;4977408;28;20211;-52
2021/11/03 02:30:43;;;;;;;13.90;9.70;;;6.00;99.90;;;;;;4975024;28;20388;-51
2021/11/03 02:33:16;;;;;;;13.37;9.23;;;5.90;99.90;;;;;;4975793;28;20367;-51
2021/11/03 02:35:55;;;;;;;13.27;8.97;;;6.00;99.90;;;;;;4975812;28;20207;-51
2021/11/03 02:38:32;;;;;;;12.97;7.90;;;6.00;99.90;;;;;;4980104;28;20264;-50
2021/11/03 02:41:23;;;;;;;10.73;7.83;;;6.00;99.90;;;;;;4982237;28;20200;-52
2021/11/03 02:43:55;;;;;;;12.20;8.83;;;6.00;99.90;;;;;;4978457;28;20206;-52
2021/11/03 02:46:22;;;;;;;11.60;8.73;;;6.00;99.90;;;;;;4977287;28;20230;-51
2021/11/03 02:48:48;;;;;;;19.37;10.97;;;6.00;99.90;;;;;;4979184;28;20247;-51
2021/11/03 02:51:40;;;;;;;12.00;8.57;;;5.90;99.90;;;;;;4980130;28;20247;-51
2021/11/03 02:54:15;;;;;;;15.93;9.37;;;5.80;99.90;;;;;;4976816;28;20340;-51
2021/11/03 02:56:48;;;;;;;12.47;8.13;;;5.90;99.90;;;;;;4980690;28;20208;-53
2021/11/03 02:59:17;;;;;;;16.40;9.87;;;5.90;99.90;;;;;;4979723;28;20216;-51
2021/11/03 03:01:50;;;;;;;16.67;9.90;;;5.90;99.90;;;;;;4979290;28;20347;-51
2021/11/03 03:04:22;;;;;;;15.07;9.23;;;5.80;99.90;;;;;;4980300;28;20222;-52
2021/11/03 03:06:50;;;;;;;13.43;9.13;;;5.70;99.90;;;;;;4980409;28;20233;-52
2021/11/03 03:09:17;;;;;;;14.10;8.97;;;5.80;99.90;;;;;;4979980;28;20198;-53
2021/11/03 03:11:56;;;;;;;15.17;9.50;;;5.80;99.90;;;;;;4980670;28;20214;-51
2021/11/03 03:14:28;;;;;;;13.37;9.00;;;5.80;99.90;;;;;;4978792;28;20210;-53
2021/11/03 03:16:56;;;;;;;13.57;9.00;;;5.80;99.90;;;;;;4977652;28;20206;-51
2021/11/03 03:19:23;;;;;;;12.87;9.00;;;5.80;99.90;;;;;;4978608;28;20311;-53
2021/11/03 03:21:50;;;;;;;12.77;9.67;;;5.70;99.90;;;;;;4961278;28;20209;-52
2021/11/03 03:24:17;;;;;;;12.17;8.83;;;5.70;99.90;;;;;;4978893;28;21637;-52
2021/11/03 03:26:45;;;;;;;12.23;8.70;;;5.70;99.90;;;;;;4978303;28;20219;-52
2021/11/03 03:29:12;;;;;;;11.90;8.20;;;5.70;99.90;;;;;;4976845;28;20279;-52
2021/11/03 03:31:40;;;;;;;11.70;8.30;;;5.70;99.90;;;;;;4975787;28;20208;-51
2021/11/03 03:34:13;;;;;;;12.73;8.30;;;5.70;99.90;;;;;;4974686;28;20212;-52
2021/11/03 03:36:41;;;;;;;9.87;7.73;;;5.70;99.90;;;;;;4973625;28;20217;-52
2021/11/03 03:39:10;;;;;;;9.07;7.37;;;5.70;99.90;;;;;;4978011;28;20295;-51
2021/11/03 03:41:39;;;;;;;13.30;8.80;;;5.60;99.90;;;;;;4977334;28;20212;-53
2021/11/03 03:44:06;;;;;;;8.70;7.23;;;5.60;99.90;;;;;;4978059;28;20231;-52
2021/11/03 03:46:34;;;;;;;9.10;7.67;;;5.60;99.90;;;;;;4976707;28;20278;-51
2021/11/03 03:49:01;;;;;;;10.73;7.53;;;5.50;99.90;;;;;;4976659;28;20307;-51
2021/11/03 03:51:28;;;;;;;8.73;7.47;;;5.50;99.90;;;;;;4977614;28;20256;-53
2021/11/03 03:53:55;;;;;;;10.20;7.80;;;5.50;99.90;;;;;;4961215;28;20209;-52
2021/11/03 03:56:22;;;;;;;9.67;7.03;;;5.50;99.90;;;;;;4962963;28;20252;-52
2021/11/03 03:58:50;;;;;;;10.23;7.20;;;5.50;99.90;;;;;;4982523;28;20220;-51
2021/11/03 04:01:21;;;;;;;8.50;7.17;;;5.50;99.90;;;;;;4975087;28;20747;-53
2021/11/03 04:03:51;;;;;;;9.80;7.10;;;5.50;99.90;;;;;;4976984;28;20545;-52
2021/11/03 04:06:18;;;;;;;10.17;7.77;;;5.50;99.90;;;;;;4962441;28;20197;-51
2021/11/03 04:08:45;;;;;;;12.63;7.37;;;5.50;99.90;;;;;;4977642;28;20207;-51
2021/11/03 04:11:13;;;;;;;8.00;7.13;;;5.40;99.90;;;;;;4977158;28;20722;-51
2021/11/03 04:13:40;;;;;;;10.23;7.83;;;5.40;99.90;;;;;;4976273;28;20707;-53
2021/11/03 04:16:07;;;;;;;9.20;7.10;;;5.40;99.90;;;;;;4977302;28;20213;-51
2021/11/03 04:18:34;;;;;;;8.43;7.37;;;5.40;99.90;;;;;;4976134;28;20745;-52
2021/11/03 04:21:01;;;;;;;9.63;7.50;;;5.50;99.90;;;;;;4980498;28;20240;-52
2021/11/03 04:23:28;;;;;;;8.40;7.10;;;5.50;99.90;;;;;;4960333;28;21150;-51
2021/11/03 04:25:56;;;;;;;9.40;7.23;;;5.50;99.90;;;;;;4979538;28;20269;-52
2021/11/03 04:28:22;;;;;;;7.97;6.80;;;5.50;99.90;;;;;;4976044;28;20379;-51
2021/11/03 04:30:49;;;;;;;7.40;6.00;;;5.50;99.90;;;;;;4977677;28;20393;-53
2021/11/03 04:33:18;;;;;;;7.87;6.70;;;5.40;99.90;;;;;;4975245;28;20297;-52
2021/11/03 04:35:47;;;;;;;7.83;6.47;;;5.40;99.90;;;;;;4977274;28;20621;-52
2021/11/03 04:38:14;;;;;;;8.33;6.73;;;5.40;99.90;;;;;;4977067;28;20283;-51
2021/11/03 04:40:42;;;;;;;7.60;6.30;;;5.40;99.90;;;;;;4979311;28;20666;-52
2021/11/03 04:43:08;;;;;;;8.93;6.90;;;5.40;99.90;;;;;;4959517;28;20248;-52
2021/11/03 04:45:35;;;;;;;6.93;6.17;;;5.40;99.90;;;;;;4977231;28;20204;-51
2021/11/03 04:48:02;;;;;;;9.83;7.87;;;5.40;99.90;;;;;;4958823;28;20237;-51
2021/11/03 04:50:31;;;;;;;9.27;7.63;;;5.40;99.90;;;;;;4976307;28;20616;-53
2021/11/03 04:52:58;;;;;;;7.67;6.27;;;5.30;99.90;;;;;;4976785;28;20213;-51
2021/11/03 04:55:25;;;;;;;8.97;7.03;;;5.40;99.90;;;;;;4958536;28;20316;-51
2021/11/03 04:57:53;;;;;;;9.33;6.70;;;5.30;99.90;;;;;;4959825;28;20281;-53
2021/11/03 05:00:26;;;;;;;7.40;6.63;;;5.30;99.90;;;;;;4974991;28;20295;-52
2021/11/03 05:02:54;;;;;;;8.23;6.77;;;5.30;99.90;;;;;;4974936;28;20212;-52
2021/11/03 05:05:22;;;;;;;8.13;6.83;;;5.30;99.90;;;;;;4976817;28;20204;-52
2021/11/03 05:07:50;;;;;;;6.87;6.03;;;5.40;99.90;;;;;;4978791;28;20600;-52
2021/11/03 05:10:19;;;;;;;8.47;7.07;;;5.40;99.90;;;;;;4978375;28;20276;-52
2021/11/03 05:12:46;;;;;;;7.37;6.60;;;5.40;99.90;;;;;;4979727;28;20198;-51
2021/11/03 05:15:13;;;;;;;8.73;6.43;;;5.40;99.90;;;;;;4982545;28;20202;-52
2021/11/03 05:17:40;;;;;;;7.80;6.33;;;5.40;99.90;;;;;;4977933;28;20565;-53
2021/11/03 05:20:07;;;;;;;8.60;7.00;;;5.40;99.90;;;;;;4966195;28;20253;-52
2021/11/03 05:22:34;;;;;;;8.67;7.00;;;5.50;99.90;;;;;;4978438;28;20254;-53
2021/11/03 05:25:01;;;;;;;7.83;6.47;;;5.60;99.90;;;;;;4976401;28;20268;-52
2021/11/03 05:27:28;;;;;;;7.53;6.80;;;5.60;99.90;;;;;;4976631;28;20239;-52
2021/11/03 05:29:57;;;;;;;9.47;7.50;;;5.70;99.90;;;;;;4974795;28;20297;-51
2021/11/03 05:32:24;;;;;;;7.93;6.70;;;5.80;99.90;;;;;;4973288;28;20255;-51
2021/11/03 05:34:51;;;;;;;9.67;7.10;;;5.60;99.90;;;;;;4973004;28;20525;-52
2021/11/03 05:37:19;;;;;;;8.77;6.80;;;5.50;99.90;;;;;;4976041;28;20290;-51
2021/11/03 05:39:50;;;;;;;7.80;6.60;;;5.60;99.90;;;;;;4974441;28;20209;-51
2021/11/03 05:42:17;;;;;;;8.70;7.27;;;5.50;99.90;;;;;;4967514;28;20589;-52
2021/11/03 05:44:44;;;;;;;7.87;6.53;;;5.60;99.90;;;;;;4977377;28;20899;-53
2021/11/03 05:47:22;;;;;;;7.93;6.60;;;5.50;99.90;;;;;;4956781;28;20740;-54
2021/11/03 05:49:50;;;;;;;7.93;6.27;;;5.60;99.90;;;;;;4976848;28;20245;-52
2021/11/03 05:52:17;;;;;;;8.83;6.87;;;5.50;99.90;;;;;;4974498;28;20568;-52
2021/11/03 05:54:45;;;;;;;8.70;7.37;;;5.60;99.90;;;;;;4976595;28;20656;-52
2021/11/03 05:57:20;;;;;;;8.87;7.07;;;5.50;99.90;;;;;;4976060;28;20279;-52
2021/11/03 05:59:48;;;;;;;8.30;6.93;;;5.50;99.90;;;;;;4977639;28;20628;-53
2021/11/03 06:02:15;;;;;;;7.23;6.53;;;5.50;99.90;;;;;;4973172;28;20516;-52
2021/11/03 06:04:42;;;;;;;8.07;6.53;;;5.50;99.90;;;;;;4976056;28;20519;-52
2021/11/03 06:07:10;;;;;;;8.57;6.83;;;5.50;99.90;;;;;;4959533;28;20249;-52
2021/11/03 06:09:38;;;;;;;10.07;7.67;;;5.60;99.90;;;;;;4959603;28;20763;-52
2021/11/03 06:12:05;;;;;;;8.27;6.93;;;5.60;99.90;;;;;;4975145;28;20261;-51
2021/11/03 06:14:32;;;;;;;8.67;7.63;;;5.60;99.90;;;;;;4978807;28;20212;-51
2021/11/03 06:16:59;;;;;;;9.57;7.87;;;5.70;99.90;;;;;;4976348;28;20685;-53
2021/11/03 06:19:27;;;;;;;9.07;7.43;;;5.70;99.90;;;;;;4980302;28;20318;-51
2021/11/03 06:21:54;;;;;;;9.53;6.80;;;5.70;99.90;;;;;;4978859;28;20205;-51
2021/11/03 06:24:21;;;;;;;10.73;8.13;;;5.70;99.90;;;;;;4979208;28;20238;-53
2021/11/03 06:26:48;;;;;;;11.60;8.80;;;5.70;99.90;;;;;;4977799;28;20306;-53
2021/11/03 06:29:15;;;;;;;10.27;8.37;;;5.60;99.90;;;;;;4979602;28;20247;-52
2021/11/03 06:31:41;;;;;;;10.70;8.27;;;5.70;99.90;;;;;;4977632;28;20243;-52
2021/11/03 06:34:08;;;;;;;12.70;8.50;;;5.60;99.90;;;;;;4978791;28;20830;-54
2021/11/03 06:36:37;;;;;;;12.20;8.97;;;5.70;99.90;;;;;;4979124;28;20317;-50
2021/11/03 06:39:06;;;;;;;11.57;8.67;;;5.70;99.90;;;;;;4976702;28;20296;-54
2021/11/03 06:41:35;;;;;;;11.40;8.87;;;5.70;99.90;;;;;;4980016;28;20218;-53
2021/11/03 06:44:03;;;;;;;12.80;9.37;;;5.70;99.90;;;;;;4980452;28;20631;-52
2021/11/03 06:46:30;;;;;;;11.90;9.10;;;5.70;99.90;;;;;;4976439;28;20233;-52
2021/11/03 06:48:57;;;;;;;13.60;9.40;;;5.70;99.90;;;;;;4974340;28;20336;-52
2021/11/03 06:51:23;;;;;;;14.53;9.90;;;5.60;99.90;;;;;;4977588;28;20683;-53
2021/11/03 06:53:50;;;;;;;19.23;8.93;;;5.70;99.90;;;;;;4974500;28;20677;-52
2021/11/03 06:56:17;;;;;;;18.40;10.07;;;5.50;99.90;;;;;;4962476;28;20511;-52
2021/11/03 06:58:44;;;;;;;11.33;8.67;;;5.60;99.90;;;;;;4978219;28;20622;-54
2021/11/03 07:01:12;;;;;;;13.37;8.60;;;5.50;99.90;;;;;;4955525;28;20210;-52
2021/11/03 07:03:41;;;;;;;12.37;8.37;;;5.60;99.90;;;;;;4977819;28;20292;-52
2021/11/03 07:06:08;;;;;;;12.57;8.63;;;5.50;99.90;;;;;;4981931;28;20892;-53
2021/11/03 07:08:36;;;;;;;11.73;8.07;;;5.60;99.90;;;;;;4980522;28;20246;-52
2021/11/03 07:11:03;;;;;;;9.37;8.20;;;5.70;99.90;;;;;;4979447;28;20271;-52
2021/11/03 07:13:30;;;;;;;12.40;8.60;;;5.70;99.90;;;;;;4981110;28;20233;-53
2021/11/03 07:15:58;;;;;;;10.60;8.30;;;5.60;99.90;;;;;;4978815;28;20202;-52
2021/11/03 07:18:25;;;;;;;13.03;7.97;;;5.60;99.90;;;;;;4973400;28;20193;-51
2021/11/03 07:20:52;;;;;;;8.80;7.90;;;5.60;99.90;;;;;;4976119;28;20645;-52
2021/11/03 07:23:21;;;;;;;8.83;6.87;;;5.50;99.90;;;;;;4974413;28;20234;-50
2021/11/03 07:25:52;;;;;;;7.87;6.70;;;5.50;99.90;;;;;;4978234;28;20639;-51
2021/11/03 07:28:18;;;;;;;9.47;7.33;;;5.50;99.90;;;;;;4973904;28;20250;-53
2021/11/03 07:30:46;;;;;;;7.77;6.93;;;5.50;99.90;;;;;;4977737;28;20217;-51
2021/11/03 07:33:14;;;;;;;8.23;7.07;;;5.50;99.90;;;;;;4959173;28;20233;-51
2021/11/03 07:35:42;;;;;;;9.80;7.00;;;5.50;99.90;;;;;;4981036;28;20771;-53
2021/11/03 07:38:11;;;;;;;9.83;7.77;;;5.50;99.90;;;;;;4976622;28;20312;-51
2021/11/03 07:40:48;;;;;;;9.80;8.00;;;5.50;99.90;;;;;;4979057;28;20659;-53
2021/11/03 07:43:17;;;;;;;10.70;8.50;;;5.60;99.90;;;;;;4966833;28;20254;-53
2021/11/03 07:45:47;;;;;;;10.00;7.30;;;5.60;99.90;;;;;;4973581;28;20653;-52
2021/11/03 07:48:14;;;;;;;9.93;7.40;;;5.60;99.90;;;;;;4968053;28;20276;-52
2021/11/03 07:50:53;;;;;;;11.50;7.47;;;5.80;99.90;;;;;;4967061;28;20567;-53
2021/11/03 07:53:21;;;;;;;10.10;7.43;;;5.80;99.90;;;;;;4971672;28;20313;-51
2021/11/03 07:55:57;;;;;;;12.40;8.43;;;5.70;99.90;;;;;;4972595;28;20697;-51
2021/11/03 07:58:27;;;;;;;9.80;7.43;;;5.70;99.90;;;;;;4967458;28;20296;-51
2021/11/03 08:00:55;;;;;;;11.77;8.27;;;5.70;99.90;;;;;;4971225;28;20334;-51
2021/11/03 08:03:23;;;;;;;12.00;8.13;;;5.70;99.90;;;;;;4971847;28;20265;-53
2021/11/03 08:05:51;;;;;;;9.90;7.60;;;5.80;99.90;;;;;;4974375;28;20226;-51
2021/11/03 08:08:20;;;;;;;12.60;9.23;;;5.90;99.90;;;;;;4969731;28;20205;-52
2021/11/03 08:10:48;;;;;;;15.20;8.50;;;6.00;99.90;;;;;;4974630;28;20245;-51
2021/11/03 08:13:17;;;;;;;11.43;8.03;;;6.00;99.90;;;;;;4973938;28;21386;-52
2021/11/03 08:15:50;;;;;;;8.53;7.40;;;6.10;99.90;;;;;;4973906;28;20233;-52
2021/11/03 08:18:19;;;;;;;9.57;7.70;;;6.10;99.90;;;;;;4971650;28;20312;-51
2021/11/03 08:20:46;;;;;;;9.60;7.73;;;6.20;99.90;;;;;;4967085;28;21095;-53
2021/11/03 08:23:13;;;;;;;9.97;8.40;;;6.20;99.90;;;;;;4976983;28;20205;-52
2021/11/03 08:25:41;;;;;;;12.57;8.03;;;6.20;99.90;;;;;;4971534;28;20658;-52
2021/11/03 08:28:08;;;;;;;14.47;9.13;;;6.30;99.90;;;;;;4971206;28;20248;-53
2021/11/03 08:30:37;;;;;;;11.13;8.87;;;6.50;99.90;;;;;;4970947;28;21509;-52
2021/11/03 08:33:36;;;;;;;10.70;8.37;;;6.50;99.90;;;;;;4973803;28;20320;-52
2021/11/03 08:36:05;;;;;;;12.07;8.70;;;6.50;99.90;;;;;;4962914;28;20257;-52
2021/11/03 08:38:51;;;;;;;10.23;7.73;;;6.60;99.90;;;;;;4972873;28;20239;-50
2021/11/03 08:41:19;;;;;;;11.50;9.13;;;6.50;99.90;;;;;;4972652;28;20205;-51
2021/11/03 08:43:47;;;;;;;13.13;8.63;;;6.50;99.90;;;;;;4974840;28;20241;-53
2021/11/03 08:46:16;;;;;;;14.10;8.97;;;6.50;99.90;;;;;;4975969;28;20287;-50
2021/11/03 08:48:55;;;;;;;11.33;8.97;;;6.50;99.90;;;;;;4973038;28;20339;-51
2021/11/03 08:51:22;;;;;;;12.50;8.57;;;6.70;99.90;;;;;;4971007;28;20320;-52
2021/11/03 08:53:53;;;;;;;9.07;8.17;;;6.80;99.90;;;;;;4959636;28;20639;-53
2021/11/03 08:56:21;;;;;;;12.57;8.83;;;6.80;99.90;;;;;;4976624;28;20270;-54
2021/11/03 08:58:48;;;;;;;10.77;8.60;;;6.80;99.90;;;;;;4977552;28;20479;-53
2021/11/03 09:01:15;;;;;;;10.87;8.80;;;6.70;99.90;;;;;;4973214;28;20253;-53
2021/11/03 09:03:42;;;;;;;12.07;9.23;;;6.80;99.90;;;;;;4977054;28;20202;-53
2021/11/03 09:06:09;;;;;;;12.03;8.77;;;6.90;99.90;;;;;;4979296;28;20213;-52
2021/11/03 09:08:38;;;;;;;11.20;9.40;;;6.90;99.90;;;;;;4979469;28;20198;-52
2021/11/03 09:11:07;;;;;;;11.63;9.30;;;7.00;99.90;;;;;;4958469;28;20254;-52
2021/11/03 09:13:34;;;;;;;10.80;9.23;;;7.00;99.90;;;;;;4978158;28;20210;-54
2021/11/03 09:16:03;;;;;;;12.37;9.43;;;7.10;99.90;;;;;;4974374;28;20260;-51
2021/11/03 09:18:30;;;;;;;12.73;9.67;;;7.30;99.90;;;;;;4975353;28;20238;-51
2021/11/03 09:20:58;;;;;;;11.10;9.30;;;7.30;99.90;;;;;;4977844;28;20316;-52
2021/11/03 09:23:26;;;;;;;12.07;9.90;;;7.30;99.90;;;;;;4957955;28;20199;-52
2021/11/03 09:25:54;;;;;;;12.67;9.43;;;7.30;99.90;;;;;;4978711;28;20209;-52
2021/11/03 09:28:23;;;;;;;10.80;9.50;;;7.40;99.90;;;;;;4972045;28;20626;-52
2021/11/03 09:30:52;;;;;;;10.83;9.50;;;7.30;99.90;;;;;;4973924;28;20256;-51
2021/11/03 09:33:20;;;;;;;12.23;9.67;;;7.40;99.90;;;;;;4971874;28;20620;-51
2021/11/03 09:35:49;;;;;;;13.50;10.20;;;7.50;99.90;;;;;;4978036;28;20260;-53
2021/11/03 09:38:19;;;;;;;14.27;10.70;;;7.50;99.90;;;;;;4974886;28;20274;-51
2021/11/03 09:41:12;;;;;;;13.37;9.87;;;7.50;99.90;;;;;;4978180;28;20307;-51
2021/11/03 09:43:49;;;;;;;11.63;10.40;;;7.50;99.90;;;;;;4976306;28;20282;-51
2021/11/03 09:46:25;;;;;;;12.93;9.40;;;7.60;99.90;;;;;;4970880;28;20592;-51
2021/11/03 09:49:05;;;;;;;11.30;9.73;;;7.70;99.90;;;;;;4955835;28;20233;-52
2021/11/03 09:51:32;;;;;;;13.43;9.77;;;7.60;99.90;;;;;;4957119;28;20218;-53
2021/11/03 09:54:02;;;;;;;13.97;10.53;;;7.70;99.90;;;;;;4959206;28;20242;-51
2021/11/03 09:56:39;;;;;;;16.37;10.80;;;7.60;99.90;;;;;;4957542;28;20216;-52
2021/11/03 09:59:31;;;;;;;14.23;11.37;;;7.60;99.90;;;;;;4956576;28;20208;-52
2021/11/03 10:02:20;;;;;;;16.33;12.57;;;7.80;99.90;;;;;;4955033;28;20212;-52
2021/11/03 10:04:54;;;;;;;13.83;11.50;;;7.90;99.90;;;;;;4961620;28;20571;-54
2021/11/03 10:07:39;;;;;;;14.90;11.37;;;8.00;99.90;;;;;;4956787;28;20326;-51
2021/11/03 10:10:32;;;;;;;14.93;11.53;;;8.00;99.90;;;;;;4959569;28;20277;-52
2021/11/03 10:13:14;;;;;;;16.00;12.30;;;8.00;99.90;;;;;;4958585;28;20211;-52
2021/11/03 10:16:10;;;;;;;16.00;11.97;;;7.90;99.90;;;;;;4957849;28;20297;-51
2021/11/03 10:18:54;;;;;;;16.07;10.63;;;8.00;99.90;;;;;;4953193;28;20202;-53
2021/11/03 10:21:32;;;;;;;14.47;11.37;;;7.90;99.90;;;;;;4957921;28;20278;-52
2021/11/03 10:24:22;;;;;;;17.03;12.13;;;8.00;99.90;;;;;;4958926;28;20261;-51
2021/11/03 10:26:54;;;;;;;18.07;11.80;;;7.90;99.90;;;;;;4955996;28;20215;-50
2021/11/03 10:29:34;;;;;;;15.80;11.87;;;8.10;99.90;;;;;;4956685;28;20207;-53
2021/11/03 10:32:31;;;;;;;18.83;13.43;;;8.10;99.90;;;;;;4954710;28;20268;-52
2021/11/03 10:35:07;;;;;;;16.67;11.97;;;8.20;99.90;;;;;;4959104;28;20296;-54
2021/11/03 10:37:40;;;;;;;16.97;12.57;;;8.40;99.90;;;;;;4958040;28;20207;-51
2021/11/03 10:40:23;;;;;;;17.40;13.10;;;8.30;99.90;;;;;;4958834;28;20299;-52
2021/11/03 10:43:02;;;;;;;17.47;13.37;;;8.30;99.90;;;;;;4960043;28;20277;-54
2021/11/03 10:45:32;;;;;;;19.20;13.93;;;8.30;99.90;;;;;;4958247;28;20659;-52
2021/11/03 10:48:23;;;;;;;18.20;12.97;;;8.30;99.90;;;;;;4958661;28;20221;-54
2021/11/03 10:50:56;;;;;;;15.60;12.00;;;8.30;99.90;;;;;;4974819;28;20199;-51
2021/11/03 10:53:43;;;;;;;15.80;13.03;;;8.20;99.90;;;;;;4977808;28;20210;-49
2021/11/03 10:56:23;;;;;;;18.40;12.73;;;8.20;99.90;;;;;;4976103;28;20719;-50
2021/11/03 10:58:50;;;;;;;17.47;13.30;;;8.20;99.90;;;;;;4984663;28;20211;-50
2021/11/03 11:01:22;;;;;;;19.30;13.73;;;8.30;99.90;;;;;;4982282;28;20267;-50
2021/11/03 11:04:16;;;;;;;19.77;13.77;;;8.20;99.90;;;;;;4978669;28;20203;-53
2021/11/03 11:06:51;;;;;;;17.70;13.57;;;8.50;99.90;;;;;;4982315;28;20332;-50
2021/11/03 11:09:31;;;;;;;19.87;13.00;;;8.50;99.90;;;;;;4981613;28;20210;-52
2021/11/03 11:12:13;;;;;;;19.63;13.87;;;8.30;99.90;;;;;;4981691;28;20242;-52
2021/11/03 11:14:40;;;;;;;20.83;13.97;;;8.50;99.90;;;;;;4982767;28;20212;-52
2021/11/03 11:17:23;;;;;;;18.63;14.80;;;8.70;99.90;;;;;;4981292;28;20271;-50
2021/11/03 11:20:03;;;;;;;20.40;15.03;;;8.70;99.90;;;;;;4977206;28;20211;-50
2021/11/03 11:22:39;;;;;;;17.80;13.53;;;8.80;99.90;;;;;;4974811;28;22345;-52
2021/11/03 11:25:14;;;;;;;21.03;13.73;;;8.90;99.90;;;;;;4978897;28;20201;-50
2021/11/03 11:28:02;;;;;;;20.67;14.53;;;8.80;99.90;;;;;;4976090;28;20235;-51
2021/11/03 11:31:04;;;;;;;19.97;15.00;;;8.90;99.90;;;;;;4977592;28;20235;-51
2021/11/03 11:33:39;;;;;;;21.57;14.60;;;8.90;99.90;;;;;;4908845;28;20943;-50
2021/11/03 11:36:39;;;;;;;18.37;14.70;;;8.90;99.90;;;;;;4962438;28;20204;-51
2021/11/03 11:39:13;;;;;;;17.47;13.73;;;9.00;99.90;;;;;;4975133;28;20234;-50
2021/11/03 11:41:58;;;;;;;17.10;14.00;;;9.20;99.90;;;;;;4961009;28;20225;-50
2021/11/03 11:44:31;;;;;;;20.30;14.93;;;9.10;99.90;;;;;;4976864;28;20221;-50
2021/11/03 11:47:04;;;;;;;19.03;14.83;;;8.90;99.90;;;;;;4974929;28;20317;-50
2021/11/03 11:49:34;;;;;;;18.80;14.03;;;9.00;99.90;;;;;;4979846;28;20244;-52
2021/11/03 11:52:24;;;;;;;21.93;14.43;;;9.10;99.90;;;;;;4979218;28;20213;-50
2021/11/03 11:55:12;;;;;;;19.30;14.80;;;9.10;99.90;;;;;;4978492;28;20284;-52
2021/11/03 11:58:03;;;;;;;20.63;15.63;;;9.10;99.90;;;;;;4980724;28;20675;-50
2021/11/03 12:00:30;;;;;;;18.20;14.00;;;9.20;99.90;;;;;;4983740;28;20740;-51
2021/11/03 12:03:15;;;;;;;20.70;14.90;;;9.30;99.90;;;;;;4975107;28;20237;-50
2021/11/03 12:05:50;;;;;;;22.70;15.43;;;9.30;99.90;;;;;;4980260;28;20212;-49
2021/11/03 12:08:44;;;;;;;22.63;15.17;;;9.20;99.90;;;;;;4978951;28;20209;-50
2021/11/03 12:11:19;;;;;;;20.60;15.60;;;9.40;99.90;;;;;;4967689;28;20213;-53
2021/11/03 12:14:00;;;;;;;19.97;15.30;;;9.40;99.90;;;;;;4966799;28;20210;-50
2021/11/03 12:16:49;;;;;;;18.20;14.47;;;9.30;99.90;;;;;;4977207;28;20552;-50
2021/11/03 12:19:38;;;;;;;21.23;15.47;;;9.40;99.90;;;;;;4977408;28;20738;-52
2021/11/03 12:22:12;;;;;;;22.87;16.30;;;9.30;99.90;;;;;;4979643;28;20680;-50
2021/11/03 12:24:41;;;;;;;21.20;15.20;;;9.20;99.90;;;;;;4979368;28;20202;-54
2021/11/03 12:27:14;;;;;;;21.83;15.83;;;9.30;99.90;;;;;;4977661;28;20852;-50
2021/11/03 12:29:42;;;;;;;18.97;15.20;;;9.40;99.90;;;;;;4980068;28;20211;-49
2021/11/03 12:32:28;;;;;;;21.37;16.43;;;9.40;99.90;;;;;;4973807;28;20205;-50
2021/11/03 12:35:04;;;;;;;21.63;15.43;;;9.50;99.90;;;;;;4981355;28;20204;-51
2021/11/03 12:37:35;;;;;;;21.60;16.50;;;9.30;99.90;;;;;;4979662;28;20674;-51
2021/11/03 12:40:35;;;;;;;20.10;15.83;;;9.40;99.90;;;;;;4981002;28;20279;-53
2021/11/03 12:43:31;;;;;;;24.07;16.57;;;9.30;99.90;;;;;;4978438;28;20226;-53
2021/11/03 12:46:07;;;;;;;21.70;15.80;;;9.20;99.90;;;;;;4974052;28;20624;-51
2021/11/03 12:48:41;;;;;;;24.20;16.73;;;9.40;99.90;;;;;;4979846;28;20316;-51
2021/11/03 12:51:19;;;;;;;20.50;15.80;;;9.50;99.90;;;;;;4972351;28;20233;-52
2021/11/03 12:54:15;;;;;;;22.97;17.00;;;9.50;99.90;;;;;;4974215;28;20233;-51
2021/11/03 12:56:53;;;;;;;22.90;16.83;;;9.60;99.90;;;;;;4966594;28;20313;-51
2021/11/03 12:59:25;;;;;;;20.60;15.00;;;9.60;99.90;;;;;;4971523;28;20243;-51
2021/11/03 13:02:01;;;;;;;26.23;16.23;;;9.70;99.90;;;;;;4974159;28;20282;-53
2021/11/03 13:04:35;;;;;;;33.67;16.53;;;9.70;99.90;;;;;;4977774;28;20283;-51
2021/11/03 13:07:45;;;;;;;25.10;17.77;;;9.80;99.90;;;;;;4973729;28;20206;-52
2021/11/03 13:10:24;;;;;;;27.33;16.47;;;9.80;99.90;;;;;;4975269;28;20209;-52
2021/11/03 13:12:56;;;;;;;24.33;15.93;;;9.90;99.90;;;;;;4977703;28;20258;-51